createdAt,value
2023-05-10T00:01:11.109Z,18.30
2023-05-10T00:03:37.768Z,18.30
2023-05-10T00:06:04.481Z,18.30
2023-05-10T00:08:31.174Z,18.30
2023-05-10T00:10:57.817Z,18.30
2023-05-10T00:13:24.596Z,18.30
2023-05-10T00:15:51.658Z,18.30
2023-05-10T00:18:18.256Z,18.30
2023-05-10T00:20:46.965Z,18.30
2023-05-10T00:23:13.653Z,18.30
2023-05-10T00:25:41.272Z,18.30
2023-05-10T00:28:07.933Z,18.30
2023-05-10T00:30:34.576Z,18.30
2023-05-10T00:33:01.416Z,18.20
2023-05-10T00:35:28.171Z,18.20
2023-05-10T00:37:54.749Z,18.30
2023-05-10T00:40:21.814Z,18.20
2023-05-10T00:42:48.539Z,18.20
2023-05-10T00:45:15.104Z,18.20
2023-05-10T00:47:41.797Z,18.30
2023-05-10T00:50:09.859Z,18.20
2023-05-10T00:52:36.577Z,18.30
2023-05-10T00:55:04.316Z,18.30
2023-05-10T00:57:31.432Z,18.30
2023-05-10T00:59:58.764Z,18.20
2023-05-10T01:02:25.547Z,18.20
2023-05-10T01:04:52.952Z,18.20
2023-05-10T01:07:20.739Z,18.20
2023-05-10T01:09:47.549Z,18.30
2023-05-10T01:12:14.207Z,18.30
2023-05-10T01:14:41.346Z,18.20
2023-05-10T01:17:08.432Z,18.30
2023-05-10T01:19:35.979Z,18.30
2023-05-10T01:22:14.766Z,18.20
2023-05-10T01:25:07.742Z,18.30
2023-05-10T01:27:37.248Z,18.20
2023-05-10T01:30:15.956Z,18.20
2023-05-10T01:33:08.968Z,18.20
2023-05-10T01:35:41.235Z,18.20
2023-05-10T01:38:16.300Z,18.20
2023-05-10T01:40:42.884Z,18.20
2023-05-10T01:43:12.186Z,18.20
2023-05-10T01:45:49.721Z,18.20
2023-05-10T01:48:17.176Z,18.20
2023-05-10T01:50:44.760Z,18.20
2023-05-10T01:53:12.489Z,18.20
2023-05-10T01:55:57.726Z,18.20
2023-05-10T01:58:28.275Z,18.20
2023-05-10T02:00:55.126Z,18.20
2023-05-10T02:03:23.054Z,18.20
2023-05-10T02:05:50.332Z,18.20
2023-05-10T02:08:18.533Z,18.20
2023-05-10T02:10:46.383Z,18.20
2023-05-10T02:13:13.928Z,18.20
2023-05-10T02:15:41.097Z,18.20
2023-05-10T02:18:07.991Z,18.20
2023-05-10T02:20:35.866Z,18.10
2023-05-10T02:23:03.963Z,18.20
2023-05-10T02:25:31.348Z,18.20
2023-05-10T02:27:58.660Z,18.20
2023-05-10T02:30:25.674Z,18.20
2023-05-10T02:32:52.842Z,18.20
2023-05-10T02:35:19.696Z,18.20
2023-05-10T02:37:47.218Z,18.30
2023-05-10T02:40:14.027Z,18.30
2023-05-10T02:42:42.491Z,18.30
2023-05-10T02:45:12.048Z,18.20
2023-05-10T02:47:38.863Z,18.20
2023-05-10T02:50:05.774Z,18.20
2023-05-10T02:52:37.867Z,18.10
2023-05-10T02:55:05.978Z,18.10
2023-05-10T02:57:34.809Z,18.10
2023-05-10T03:00:02.274Z,18.10
2023-05-10T03:02:31.496Z,18.10
2023-05-10T03:04:59.429Z,18.10
2023-05-10T03:09:53.476Z,18.10
2023-05-10T03:12:29.211Z,18.10
2023-05-10T03:15:07.147Z,18.10
2023-05-10T03:17:45.958Z,18.10
2023-05-10T03:20:14.743Z,18.10
2023-05-10T03:23:01.354Z,18.10
2023-05-10T03:25:28.753Z,18.10
2023-05-10T03:27:56.456Z,18.10
2023-05-10T03:30:23.335Z,18.00
2023-05-10T03:32:49.985Z,18.00
2023-05-10T03:35:16.736Z,18.00
2023-05-10T03:37:43.417Z,18.00
2023-05-10T03:40:10.233Z,18.00
2023-05-10T03:42:37.092Z,18.00
2023-05-10T03:45:03.822Z,18.10
2023-05-10T03:47:30.842Z,18.10
2023-05-10T03:49:57.518Z,18.10
2023-05-10T03:52:24.110Z,18.10
2023-05-10T03:54:50.709Z,18.10
2023-05-10T03:57:17.319Z,18.10
2023-05-10T03:59:43.886Z,18.10
2023-05-10T04:02:10.466Z,18.10
2023-05-10T04:04:37.227Z,18.10
2023-05-10T04:07:03.884Z,18.10
2023-05-10T04:09:30.583Z,18.00
2023-05-10T04:11:57.301Z,18.00
2023-05-10T04:14:23.969Z,18.00
2023-05-10T04:16:50.616Z,18.00
2023-05-10T04:19:17.238Z,18.00
2023-05-10T04:21:43.857Z,18.00
2023-05-10T04:24:10.510Z,18.00
2023-05-10T04:26:37.139Z,18.00
2023-05-10T04:29:04.819Z,18.00
2023-05-10T04:31:31.498Z,18.00
2023-05-10T04:33:58.068Z,18.00
2023-05-10T04:36:24.743Z,18.00
2023-05-10T04:38:51.341Z,18.00
2023-05-10T04:41:17.937Z,18.00
2023-05-10T04:43:44.609Z,18.00
2023-05-10T04:46:11.427Z,18.00
2023-05-10T04:48:38.225Z,18.00
2023-05-10T04:51:05.074Z,18.00
2023-05-10T04:53:31.839Z,18.00
2023-05-10T04:55:58.511Z,18.00
2023-05-10T04:58:25.109Z,18.00
2023-05-10T05:00:51.676Z,18.00
2023-05-10T05:03:20.506Z,18.00
2023-05-10T05:05:47.244Z,18.10
2023-05-10T05:08:14.134Z,18.10
2023-05-10T05:10:40.884Z,18.00
2023-05-10T05:13:07.493Z,18.00
2023-05-10T05:15:34.105Z,18.00
2023-05-10T05:18:01.804Z,18.00
2023-05-10T05:20:28.440Z,18.00
2023-05-10T05:22:55.309Z,18.00
2023-05-10T05:25:22.085Z,18.00
2023-05-10T05:27:48.818Z,18.00
2023-05-10T05:30:15.762Z,18.10
2023-05-10T05:32:42.514Z,18.00
2023-05-10T05:35:09.214Z,18.00
2023-05-10T05:37:36.291Z,18.10
2023-05-10T05:40:02.927Z,18.10
2023-05-10T05:42:29.555Z,18.10
2023-05-10T05:44:56.183Z,18.10
2023-05-10T05:47:22.799Z,18.10
2023-05-10T05:49:49.400Z,18.00
2023-05-10T05:52:15.987Z,18.00
2023-05-10T05:54:42.652Z,18.00
2023-05-10T05:57:09.979Z,18.00
2023-05-10T05:59:36.725Z,18.10
2023-05-10T06:02:03.408Z,18.10
2023-05-10T06:04:30.114Z,18.20
2023-05-10T06:06:56.751Z,18.20
2023-05-10T06:09:25.496Z,18.30
2023-05-10T06:11:52.175Z,18.40
2023-05-10T06:14:20.951Z,18.40
2023-05-10T06:17:54.305Z,18.50
2023-05-10T06:20:21.329Z,18.60
2023-05-10T06:22:48.096Z,18.60
2023-05-10T06:25:15.720Z,18.60
2023-05-10T06:27:42.784Z,18.70
2023-05-10T06:30:13.269Z,18.70
2023-05-10T06:32:40.679Z,18.70
2023-05-10T06:35:08.747Z,18.70
2023-05-10T06:37:35.597Z,18.70
2023-05-10T06:40:03.340Z,18.80
2023-05-10T06:42:30.048Z,18.80
2023-05-10T06:44:56.740Z,18.80
2023-05-10T06:47:23.581Z,18.80
2023-05-10T06:49:50.313Z,18.90
2023-05-10T06:52:16.989Z,18.80
2023-05-10T06:54:43.665Z,18.80
2023-05-10T06:57:23.358Z,18.90
2023-05-10T06:59:58.001Z,18.90
2023-05-10T07:02:24.705Z,18.90
2023-05-10T07:04:52.908Z,18.90
2023-05-10T07:07:20.155Z,18.90
2023-05-10T07:09:47.315Z,19.00
2023-05-10T07:12:15.438Z,19.00
2023-05-10T07:14:42.823Z,19.00
2023-05-10T07:17:09.992Z,19.00
2023-05-10T07:19:36.963Z,19.00
2023-05-10T07:22:04.088Z,19.00
2023-05-10T07:24:32.196Z,19.00
2023-05-10T07:26:59.126Z,19.00
2023-05-10T07:29:25.889Z,19.00
2023-05-10T07:31:52.806Z,19.00
2023-05-10T07:34:19.690Z,19.00
2023-05-10T07:36:46.610Z,19.00
2023-05-10T07:39:18.601Z,19.00
2023-05-10T07:41:53.062Z,19.00
2023-05-10T07:44:21.288Z,19.00
2023-05-10T07:46:48.773Z,19.00
2023-05-10T07:49:15.622Z,19.00
2023-05-10T07:51:43.493Z,19.00
2023-05-10T07:54:10.396Z,19.00
2023-05-10T07:56:37.136Z,19.00
2023-05-10T07:59:05.979Z,19.00
2023-05-10T08:01:33.685Z,19.00
2023-05-10T08:04:02.870Z,19.00
2023-05-10T08:06:30.903Z,19.00
2023-05-10T08:08:57.987Z,19.10
2023-05-10T08:11:24.769Z,19.00
2023-05-10T08:13:52.159Z,18.90
2023-05-10T08:16:18.975Z,18.90
2023-05-10T08:18:48.171Z,18.80
2023-05-10T08:21:16.462Z,18.70
2023-05-10T08:23:44.764Z,18.60
2023-05-10T08:26:11.829Z,18.50
2023-05-10T08:28:38.700Z,18.50
2023-05-10T08:31:06.295Z,18.40
2023-05-10T08:33:33.384Z,18.40
2023-05-10T08:36:00.126Z,18.30
2023-05-10T08:38:27.171Z,18.30
2023-05-10T08:40:59.516Z,18.20
2023-05-10T08:43:30.945Z,18.20
2023-05-10T08:46:05.307Z,18.10
2023-05-10T08:48:35.474Z,18.10
2023-05-10T08:51:04.547Z,18.10
2023-05-10T08:53:33.765Z,18.00
2023-05-10T08:56:03.420Z,18.00
2023-05-10T08:58:30.578Z,18.00
2023-05-10T09:01:00.186Z,18.00
2023-05-10T09:08:26.802Z,18.00
2023-05-10T09:10:55.019Z,17.90
2023-05-10T09:13:23.982Z,17.90
2023-05-10T09:15:51.621Z,17.80
2023-05-10T09:18:18.460Z,17.80
2023-05-10T09:20:45.894Z,17.80
2023-05-10T09:23:13.613Z,17.90
2023-05-10T09:25:43.057Z,17.90
2023-05-10T09:28:10.660Z,17.90
2023-05-10T09:30:37.647Z,17.90
2023-05-10T09:33:04.697Z,17.90
2023-05-10T09:35:34.481Z,17.80
2023-05-10T09:38:05.408Z,17.90
2023-05-10T09:40:32.433Z,17.90
2023-05-10T09:43:03.370Z,17.90
2023-05-10T09:45:32.096Z,17.90
2023-05-10T09:48:00.271Z,17.90
2023-05-10T09:50:27.854Z,17.90
2023-05-10T09:53:00.928Z,17.90
2023-05-10T09:55:50.243Z,17.90
2023-05-10T09:58:17.278Z,18.00
2023-05-10T10:00:45.906Z,18.00
2023-05-10T10:03:16.813Z,18.00
2023-05-10T10:05:45.047Z,18.00
2023-05-10T10:08:13.029Z,18.00
2023-05-10T10:10:42.166Z,18.00
2023-05-10T10:13:09.290Z,17.90
2023-05-10T10:15:36.526Z,17.90
2023-05-10T10:18:05.269Z,18.00
2023-05-10T10:20:32.248Z,18.00
2023-05-10T10:22:59.086Z,18.00
2023-05-10T10:25:26.446Z,18.00
2023-05-10T10:27:53.233Z,18.00
2023-05-10T10:30:46.960Z,18.10
2023-05-10T10:33:31.970Z,18.10
2023-05-10T10:36:03.586Z,18.10
2023-05-10T10:38:48.853Z,18.00
2023-05-10T10:41:35.827Z,18.00
2023-05-10T10:44:31.733Z,18.00
2023-05-10T10:47:09.318Z,18.00
2023-05-10T10:49:50.481Z,18.00
2023-05-10T10:52:34.171Z,18.10
2023-05-10T10:55:07.700Z,18.10
2023-05-10T10:57:49.668Z,18.10
2023-05-10T11:00:30.212Z,18.20
2023-05-10T11:03:15.546Z,18.20
2023-05-10T11:05:44.188Z,18.20
2023-05-10T11:08:13.880Z,18.20
2023-05-10T11:10:49.715Z,18.30
2023-05-10T11:13:16.600Z,18.30
2023-05-10T11:15:50.740Z,18.30
2023-05-10T11:18:24.894Z,18.30
2023-05-10T11:20:55.692Z,18.30
2023-05-10T11:23:22.584Z,18.30
2023-05-10T11:25:50.627Z,18.30
2023-05-10T11:28:20.869Z,18.30
2023-05-10T11:30:48.101Z,18.30
2023-05-10T11:33:19.009Z,18.20
2023-05-10T11:35:46.298Z,18.20
2023-05-10T11:38:14.091Z,18.20
2023-05-10T11:40:41.953Z,18.20
2023-05-10T11:43:12.269Z,18.20
2023-05-10T11:45:40.983Z,18.20
2023-05-10T11:48:08.355Z,18.30
2023-05-10T11:50:35.319Z,18.30
2023-05-10T11:53:01.983Z,18.30
2023-05-10T11:55:31.118Z,18.30
2023-05-10T11:58:02.185Z,18.30
2023-05-10T12:00:29.452Z,18.30
2023-05-10T12:02:56.460Z,18.40
2023-05-10T12:05:23.634Z,18.40
2023-05-10T12:07:50.356Z,18.40
2023-05-10T12:10:19.213Z,18.50
2023-05-10T12:12:49.097Z,18.50
2023-05-10T12:15:21.119Z,18.50
2023-05-10T12:17:48.406Z,18.50
2023-05-10T12:20:19.410Z,18.60
2023-05-10T12:22:47.579Z,18.60
2023-05-10T12:25:14.914Z,18.60
2023-05-10T12:27:42.311Z,18.60
2023-05-10T12:30:09.469Z,18.70
2023-05-10T12:32:40.613Z,18.70
2023-05-10T12:35:07.947Z,18.70
2023-05-10T12:37:36.914Z,18.70
2023-05-10T12:40:05.976Z,18.70
2023-05-10T12:42:33.126Z,18.80
2023-05-10T12:44:59.843Z,18.80
2023-05-10T12:47:26.818Z,18.80
2023-05-10T12:49:53.605Z,18.80
2023-05-10T12:52:21.969Z,18.80
2023-05-10T12:54:49.190Z,18.90
2023-05-10T12:57:15.943Z,18.90
2023-05-10T12:59:42.590Z,18.90
2023-05-10T13:02:09.794Z,18.90
2023-05-10T13:04:40.317Z,18.90
2023-05-10T13:07:07.913Z,18.90
2023-05-10T13:09:34.615Z,18.90
2023-05-10T13:12:01.523Z,18.90
2023-05-10T13:14:29.493Z,18.80
2023-05-10T13:16:56.674Z,18.90
2023-05-10T13:19:23.446Z,18.80
2023-05-10T13:21:50.127Z,18.70
2023-05-10T13:24:17.908Z,18.70
2023-05-10T13:26:44.785Z,18.70
2023-05-10T13:29:11.528Z,18.70
2023-05-10T13:31:38.296Z,18.70
2023-05-10T13:34:06.143Z,18.70
2023-05-10T13:36:32.862Z,18.70
2023-05-10T13:38:59.552Z,18.80
2023-05-10T13:41:26.292Z,18.80
2023-05-10T13:43:55.073Z,18.80
2023-05-10T13:46:21.789Z,18.80
2023-05-10T13:48:48.514Z,18.80
2023-05-10T13:51:15.239Z,18.80
2023-05-10T13:53:42.402Z,18.80
2023-05-10T13:56:09.057Z,18.80
2023-05-10T13:58:37.381Z,18.80
2023-05-10T14:01:05.332Z,18.80
2023-05-10T14:03:32.226Z,18.90
2023-05-10T14:05:59.081Z,18.90
2023-05-10T14:08:27.963Z,18.90
2023-05-10T14:10:54.716Z,18.90
2023-05-10T14:13:21.395Z,18.90
2023-05-10T14:15:48.131Z,18.90
2023-05-10T14:18:15.292Z,18.80
2023-05-10T14:20:41.967Z,18.80
2023-05-10T14:23:10.508Z,18.90
2023-05-10T14:25:39.099Z,18.90
2023-05-10T14:28:05.978Z,18.90
2023-05-10T14:30:35.027Z,18.90
2023-05-10T14:33:03.530Z,18.80
2023-05-10T14:35:32.060Z,18.80
2023-05-10T14:37:59.685Z,18.80
2023-05-10T14:40:26.954Z,18.80
2023-05-10T14:42:54.040Z,18.80
2023-05-10T14:45:21.722Z,18.80
2023-05-10T14:47:48.538Z,18.80
2023-05-10T14:50:28.171Z,18.80
2023-05-10T14:53:01.745Z,18.80
2023-05-10T14:55:28.437Z,18.80
2023-05-10T14:57:55.411Z,18.80
2023-05-10T15:00:22.578Z,18.80
2023-05-10T15:02:49.962Z,18.80
2023-05-10T15:05:17.644Z,18.90
2023-05-10T15:07:45.075Z,18.90
2023-05-10T15:10:12.366Z,18.90
2023-05-10T15:12:39.466Z,18.90
2023-05-10T15:15:07.119Z,18.90
2023-05-10T15:17:34.449Z,18.90
2023-05-10T15:20:06.541Z,18.90
2023-05-10T15:22:34.370Z,18.90
2023-05-10T15:25:01.406Z,18.90
2023-05-10T15:27:28.212Z,18.90
2023-05-10T15:29:55.179Z,18.90
2023-05-10T15:32:22.366Z,18.90
2023-05-10T15:34:49.158Z,18.90
2023-05-10T15:37:16.001Z,18.90
2023-05-10T15:39:42.658Z,18.90
2023-05-10T15:42:09.437Z,18.90
2023-05-10T15:44:36.148Z,18.90
2023-05-10T15:47:03.776Z,18.90
2023-05-10T15:49:30.616Z,18.90
2023-05-10T15:51:57.319Z,18.90
2023-05-10T15:54:24.024Z,18.90
2023-05-10T15:56:50.766Z,18.90
2023-05-10T15:59:17.504Z,18.90
2023-05-10T16:01:44.478Z,18.90
2023-05-10T16:04:11.286Z,18.80
2023-05-10T16:06:38.125Z,18.80
2023-05-10T16:09:04.896Z,18.80
2023-05-10T16:11:31.724Z,18.80
2023-05-10T16:13:58.388Z,18.80
2023-05-10T16:16:25.139Z,18.80
2023-05-10T16:18:52.541Z,18.80
2023-05-10T16:21:19.408Z,18.80
2023-05-10T16:23:46.562Z,18.70
2023-05-10T16:26:13.342Z,18.80
2023-05-10T16:28:43.661Z,18.80
2023-05-10T16:31:10.451Z,18.80
2023-05-10T16:33:37.314Z,18.90
2023-05-10T16:36:06.124Z,18.90
2023-05-10T16:38:33.291Z,18.80
2023-05-10T16:41:02.328Z,18.90
2023-05-10T21:14:36.530Z,18.90
2023-05-10T21:17:03.317Z,19.50
2023-05-10T21:19:30.073Z,19.50
2023-05-10T21:21:58.937Z,19.60
2023-05-10T21:24:25.928Z,19.60
2023-05-10T21:26:52.605Z,19.60
2023-05-10T21:29:19.335Z,19.60
2023-05-10T21:31:46.092Z,19.70
2023-05-10T21:34:15.507Z,19.70
2023-05-10T21:36:42.250Z,19.70
2023-05-10T21:39:09.041Z,19.70
2023-05-10T21:41:37.209Z,19.70
2023-05-10T21:44:04.046Z,19.70
